sensor_id;sensor_type;location;lat;lon;timestamp;P1;durP1;ratioP1;P2;durP2;ratioP2
69716;SDS011;67420;46.144;19.666;2023-11-18T00:09:49;2.00;;;1.80;;
69716;SDS011;67420;46.144;19.666;2023-11-18T00:19:51;2.08;;;1.88;;
69716;SDS011;67420;46.144;19.666;2023-11-18T00:29:55;2.22;;;1.73;;
69716;SDS011;67420;46.144;19.666;2023-11-18T00:39:57;2.03;;;1.80;;
69716;SDS011;67420;46.144;19.666;2023-11-18T00:49:59;2.00;;;1.67;;
69716;SDS011;67420;46.144;19.666;2023-11-18T01:00:03;1.77;;;1.60;;
69716;SDS011;67420;46.144;19.666;2023-11-18T01:10:05;1.98;;;1.77;;
69716;SDS011;67420;46.144;19.666;2023-11-18T01:20:08;1.98;;;1.75;;
69716;SDS011;67420;46.144;19.666;2023-11-18T01:30:12;1.83;;;1.63;;
69716;SDS011;67420;46.144;19.666;2023-11-18T01:40:14;1.73;;;1.58;;
69716;SDS011;67420;46.144;19.666;2023-11-18T01:50:17;1.50;;;1.40;;
69716;SDS011;67420;46.144;19.666;2023-11-18T02:00:19;1.60;;;1.50;;
69716;SDS011;67420;46.144;19.666;2023-11-18T02:10:21;1.40;;;1.30;;
69716;SDS011;67420;46.144;19.666;2023-11-18T02:20:23;1.42;;;1.33;;
69716;SDS011;67420;46.144;19.666;2023-11-18T02:30:25;1.50;;;1.40;;
69716;SDS011;67420;46.144;19.666;2023-11-18T02:40:35;1.60;;;1.50;;
69716;SDS011;67420;46.144;19.666;2023-11-18T02:50:39;1.80;;;1.50;;
69716;SDS011;67420;46.144;19.666;2023-11-18T03:00:43;1.40;;;1.30;;
69716;SDS011;67420;46.144;19.666;2023-11-18T03:10:46;1.55;;;1.30;;
69716;SDS011;67420;46.144;19.666;2023-11-18T03:20:48;2.10;;;1.77;;
69716;SDS011;67420;46.144;19.666;2023-11-18T03:30:50;2.15;;;1.65;;
69716;SDS011;67420;46.144;19.666;2023-11-18T03:40:52;1.75;;;1.33;;
69716;SDS011;67420;46.144;19.666;2023-11-18T03:50:54;1.67;;;1.58;;
69716;SDS011;67420;46.144;19.666;2023-11-18T04:00:56;1.42;;;1.30;;
69716;SDS011;67420;46.144;19.666;2023-11-18T04:10:58;1.80;;;1.40;;
69716;SDS011;67420;46.144;19.666;2023-11-18T04:21:00;1.50;;;1.40;;
69716;SDS011;67420;46.144;19.666;2023-11-18T04:31:02;1.50;;;1.38;;
69716;SDS011;67420;46.144;19.666;2023-11-18T04:41:04;3.28;;;1.20;;
69716;SDS011;67420;46.144;19.666;2023-11-18T04:51:08;1.50;;;1.38;;
69716;SDS011;67420;46.144;19.666;2023-11-18T05:01:10;1.30;;;1.20;;
69716;SDS011;67420;46.144;19.666;2023-11-18T05:11:12;1.45;;;1.23;;
69716;SDS011;67420;46.144;19.666;2023-11-18T05:21:14;1.48;;;1.10;;
69716;SDS011;67420;46.144;19.666;2023-11-18T05:31:16;1.38;;;1.10;;
69716;SDS011;67420;46.144;19.666;2023-11-18T05:41:18;1.63;;;1.30;;
69716;SDS011;67420;46.144;19.666;2023-11-18T05:51:28;1.70;;;1.48;;
69716;SDS011;67420;46.144;19.666;2023-11-18T06:01:30;1.20;;;1.10;;
69716;SDS011;67420;46.144;19.666;2023-11-18T06:11:33;2.03;;;1.20;;
69716;SDS011;67420;46.144;19.666;2023-11-18T06:21:36;1.98;;;1.27;;
69716;SDS011;67420;46.144;19.666;2023-11-18T06:31:38;1.38;;;1.10;;
69716;SDS011;67420;46.144;19.666;2023-11-18T06:41:40;1.30;;;1.00;;
69716;SDS011;67420;46.144;19.666;2023-11-18T06:51:50;1.07;;;0.97;;
69716;SDS011;67420;46.144;19.666;2023-11-18T07:01:52;1.10;;;1.00;;
69716;SDS011;67420;46.144;19.666;2023-11-18T07:11:54;1.13;;;1.00;;
69716;SDS011;67420;46.144;19.666;2023-11-18T07:21:57;2.67;;;1.30;;
69716;SDS011;67420;46.144;19.666;2023-11-18T07:31:59;1.08;;;0.98;;
69716;SDS011;67420;46.144;19.666;2023-11-18T07:42:03;1.08;;;1.00;;
69716;SDS011;67420;46.144;19.666;2023-11-18T07:52:06;1.52;;;1.25;;
69716;SDS011;67420;46.144;19.666;2023-11-18T08:02:08;2.83;;;1.20;;
69716;SDS011;67420;46.144;19.666;2023-11-18T08:12:12;6.40;;;1.00;;
69716;SDS011;67420;46.144;19.666;2023-11-18T08:22:13;2.30;;;1.20;;
69716;SDS011;67420;46.144;19.666;2023-11-18T08:32:17;3.25;;;1.10;;
69716;SDS011;67420;46.144;19.666;2023-11-18T08:42:19;1.05;;;0.88;;
69716;SDS011;67420;46.144;19.666;2023-11-18T08:52:21;1.85;;;1.08;;
69716;SDS011;67420;46.144;19.666;2023-11-18T09:02:23;1.95;;;1.00;;
69716;SDS011;67420;46.144;19.666;2023-11-18T09:12:25;2.65;;;1.02;;
69716;SDS011;67420;46.144;19.666;2023-11-18T09:22:28;1.60;;;1.20;;
69716;SDS011;67420;46.144;19.666;2023-11-18T09:32:29;1.05;;;1.00;;
69716;SDS011;67420;46.144;19.666;2023-11-18T09:42:36;1.45;;;1.00;;
69716;SDS011;67420;46.144;19.666;2023-11-18T09:52:47;1.35;;;1.00;;
69716;SDS011;67420;46.144;19.666;2023-11-18T10:02:53;1.13;;;1.00;;
69716;SDS011;67420;46.144;19.666;2023-11-18T10:12:58;1.25;;;0.93;;
69716;SDS011;67420;46.144;19.666;2023-11-18T10:23:07;0.80;;;0.80;;
69716;SDS011;67420;46.144;19.666;2023-11-18T10:33:13;1.38;;;0.98;;
69716;SDS011;67420;46.144;19.666;2023-11-18T10:43:17;2.83;;;0.95;;
69716;SDS011;67420;46.144;19.666;2023-11-18T10:53:19;1.77;;;0.82;;
69716;SDS011;67420;46.144;19.666;2023-11-18T11:03:23;1.85;;;1.05;;
69716;SDS011;67420;46.144;19.666;2023-11-18T11:13:25;1.40;;;0.80;;
69716;SDS011;67420;46.144;19.666;2023-11-18T11:23:35;1.42;;;0.73;;
69716;SDS011;67420;46.144;19.666;2023-11-18T11:33:57;3.25;;;1.00;;
69716;SDS011;67420;46.144;19.666;2023-11-18T11:44:07;2.63;;;0.95;;
69716;SDS011;67420;46.144;19.666;2023-11-18T11:54:10;4.50;;;1.08;;
69716;SDS011;67420;46.144;19.666;2023-11-18T12:04:20;2.40;;;1.02;;
69716;SDS011;67420;46.144;19.666;2023-11-18T12:14:30;4.90;;;1.00;;
69716;SDS011;67420;46.144;19.666;2023-11-18T12:24:39;3.47;;;0.70;;
69716;SDS011;67420;46.144;19.666;2023-11-18T12:34:51;2.70;;;1.30;;
69716;SDS011;67420;46.144;19.666;2023-11-18T12:55:17;7.07;;;3.65;;
69716;SDS011;67420;46.144;19.666;2023-11-18T13:05:21;10.43;;;4.13;;
69716;SDS011;67420;46.144;19.666;2023-11-18T13:15:24;8.25;;;3.90;;
69716;SDS011;67420;46.144;19.666;2023-11-18T13:25:26;7.57;;;3.30;;
69716;SDS011;67420;46.144;19.666;2023-11-18T13:35:28;8.02;;;3.00;;
69716;SDS011;67420;46.144;19.666;2023-11-18T13:45:30;4.75;;;2.60;;
69716;SDS011;67420;46.144;19.666;2023-11-18T13:55:39;4.28;;;2.50;;
69716;SDS011;67420;46.144;19.666;2023-11-18T14:05:41;3.55;;;2.10;;
69716;SDS011;67420;46.144;19.666;2023-11-18T14:15:48;5.57;;;2.45;;
69716;SDS011;67420;46.144;19.666;2023-11-18T14:25:56;3.03;;;1.98;;
69716;SDS011;67420;46.144;19.666;2023-11-18T14:35:58;2.63;;;1.80;;
69716;SDS011;67420;46.144;19.666;2023-11-18T14:46:02;2.60;;;1.90;;
69716;SDS011;67420;46.144;19.666;2023-11-18T14:56:06;2.78;;;1.80;;
69716;SDS011;67420;46.144;19.666;2023-11-18T15:06:08;2.75;;;1.70;;
69716;SDS011;67420;46.144;19.666;2023-11-18T15:16:13;3.72;;;1.55;;
69716;SDS011;67420;46.144;19.666;2023-11-18T15:26:14;2.47;;;1.55;;
69716;SDS011;67420;46.144;19.666;2023-11-18T15:36:17;3.00;;;1.70;;
69716;SDS011;67420;46.144;19.666;2023-11-18T15:46:18;2.55;;;1.50;;
69716;SDS011;67420;46.144;19.666;2023-11-18T15:56:20;3.00;;;1.50;;
69716;SDS011;67420;46.144;19.666;2023-11-18T16:06:23;2.35;;;1.50;;
69716;SDS011;67420;46.144;19.666;2023-11-18T16:16:25;2.17;;;1.50;;
69716;SDS011;67420;46.144;19.666;2023-11-18T16:26:28;2.42;;;1.55;;
69716;SDS011;67420;46.144;19.666;2023-11-18T16:36:30;4.07;;;1.48;;
69716;SDS011;67420;46.144;19.666;2023-11-18T16:46:36;2.25;;;1.60;;
69716;SDS011;67420;46.144;19.666;2023-11-18T16:56:39;3.17;;;1.25;;
69716;SDS011;67420;46.144;19.666;2023-11-18T17:06:41;3.75;;;1.67;;
69716;SDS011;67420;46.144;19.666;2023-11-18T17:16:45;3.13;;;1.42;;
69716;SDS011;67420;46.144;19.666;2023-11-18T17:26:47;2.25;;;1.60;;
69716;SDS011;67420;46.144;19.666;2023-11-18T17:36:52;1.83;;;1.35;;
69716;SDS011;67420;46.144;19.666;2023-11-18T17:46:54;1.38;;;1.27;;
69716;SDS011;67420;46.144;19.666;2023-11-18T17:56:57;1.40;;;1.30;;
69716;SDS011;67420;46.144;19.666;2023-11-18T18:07:01;5.80;;;1.60;;
69716;SDS011;67420;46.144;19.666;2023-11-18T18:17:03;3.13;;;1.40;;
69716;SDS011;67420;46.144;19.666;2023-11-18T18:27:06;5.13;;;1.52;;
69716;SDS011;67420;46.144;19.666;2023-11-18T18:37:08;4.20;;;1.55;;
69716;SDS011;67420;46.144;19.666;2023-11-18T18:47:10;2.20;;;1.70;;
69716;SDS011;67420;46.144;19.666;2023-11-18T18:57:12;2.20;;;1.50;;
69716;SDS011;67420;46.144;19.666;2023-11-18T19:07:16;3.40;;;1.55;;
69716;SDS011;67420;46.144;19.666;2023-11-18T19:17:19;4.60;;;1.38;;
69716;SDS011;67420;46.144;19.666;2023-11-18T19:27:23;2.40;;;1.58;;
69716;SDS011;67420;46.144;19.666;2023-11-18T19:37:25;1.65;;;1.40;;
69716;SDS011;67420;46.144;19.666;2023-11-18T19:47:28;2.17;;;1.60;;
69716;SDS011;67420;46.144;19.666;2023-11-18T19:57:31;2.38;;;1.55;;
69716;SDS011;67420;46.144;19.666;2023-11-18T20:07:36;3.35;;;2.05;;
69716;SDS011;67420;46.144;19.666;2023-11-18T20:17:40;3.33;;;1.95;;
69716;SDS011;67420;46.144;19.666;2023-11-18T20:27:47;7.00;;;1.90;;
69716;SDS011;67420;46.144;19.666;2023-11-18T20:37:49;9.05;;;2.58;;
69716;SDS011;67420;46.144;19.666;2023-11-18T20:47:52;4.50;;;2.15;;
69716;SDS011;67420;46.144;19.666;2023-11-18T20:57:54;4.80;;;2.10;;
69716;SDS011;67420;46.144;19.666;2023-11-18T21:07:56;3.30;;;1.95;;
69716;SDS011;67420;46.144;19.666;2023-11-18T21:17:59;5.60;;;2.03;;
69716;SDS011;67420;46.144;19.666;2023-11-18T21:28:01;4.78;;;1.83;;
69716;SDS011;67420;46.144;19.666;2023-11-18T21:38:06;3.97;;;1.90;;
69716;SDS011;67420;46.144;19.666;2023-11-18T21:48:08;5.72;;;1.88;;
69716;SDS011;67420;46.144;19.666;2023-11-18T21:58:09;3.90;;;1.85;;
69716;SDS011;67420;46.144;19.666;2023-11-18T22:08:14;3.80;;;1.90;;
69716;SDS011;67420;46.144;19.666;2023-11-18T22:18:20;3.63;;;1.75;;
69716;SDS011;67420;46.144;19.666;2023-11-18T22:28:24;2.45;;;1.70;;
69716;SDS011;67420;46.144;19.666;2023-11-18T22:38:25;4.13;;;2.00;;
69716;SDS011;67420;46.144;19.666;2023-11-18T22:48:27;1.95;;;1.70;;
69716;SDS011;67420;46.144;19.666;2023-11-18T22:58:29;2.05;;;1.58;;
69716;SDS011;67420;46.144;19.666;2023-11-18T23:08:31;3.15;;;2.03;;
69716;SDS011;67420;46.144;19.666;2023-11-18T23:18:33;2.08;;;1.58;;
69716;SDS011;67420;46.144;19.666;2023-11-18T23:28:35;3.30;;;1.85;;
69716;SDS011;67420;46.144;19.666;2023-11-18T23:38:38;4.15;;;1.77;;
69716;SDS011;67420;46.144;19.666;2023-11-18T23:48:40;1.88;;;1.60;;
69716;SDS011;67420;46.144;19.666;2023-11-18T23:58:44;2.20;;;1.70;;
